Time;durP1;ratioP1;P1;durP2;ratioP2;P2;SDS_P1;SDS_P2;PMS_P1;PMS_P2;Temp;Humidity;BMP_temperature;BMP_pressure;BME280_temperature;BME280_humidity;BME280_pressure;Samples;Min_cycle;Max_cycle;Signal;HPM_P1;HPM_P2
2022/07/26 00:02:13;;;;;;;6.37;5.57;;;22.20;99.90;;;;;;5117122;28;20449;-63
2022/07/26 00:04:41;;;;;;;5.00;4.60;;;22.00;99.90;;;;;;5117057;28;20801;-63
2022/07/26 00:07:07;;;;;;;5.77;5.27;;;22.00;99.90;;;;;;5117006;28;20452;-63
2022/07/26 00:09:34;;;;;;;7.90;5.30;;;21.90;99.90;;;;;;5116698;28;20456;-63
2022/07/26 00:12:00;;;;;;;7.27;5.87;;;21.80;99.90;;;;;;5116719;28;20449;-63
2022/07/26 00:14:27;;;;;;;6.07;5.40;;;21.60;99.90;;;;;;5116570;28;20536;-63
2022/07/26 00:16:54;;;;;;;6.00;5.37;;;21.70;99.90;;;;;;5116888;28;20437;-63
2022/07/26 00:19:20;;;;;;;5.40;4.90;;;21.70;99.90;;;;;;5116870;28;20441;-63
2022/07/26 00:22:32;;;;;;;6.37;5.80;;;21.60;99.90;;;;;;5116578;28;20532;-63
2022/07/26 00:24:34;;;;;;;7.17;5.03;;;21.70;99.90;;;;;;5116337;28;20438;-63
2022/07/26 00:27:01;;;;;;;5.63;5.23;;;21.60;99.90;;;;;;5116371;28;20785;-63
2022/07/26 00:29:27;;;;;;;5.57;5.17;;;21.70;99.90;;;;;;5116581;28;20534;-64
2022/07/26 00:31:54;;;;;;;5.40;5.07;;;21.60;99.90;;;;;;5116463;28;20441;-63
2022/07/26 00:34:20;;;;;;;6.60;5.00;;;21.80;99.90;;;;;;5116441;28;20482;-64
2022/07/26 00:36:48;;;;;;;5.43;5.00;;;21.90;99.90;;;;;;5116228;28;20481;-63
2022/07/26 00:39:15;;;;;;;7.30;5.30;;;21.90;99.90;;;;;;5116147;28;20450;-63
2022/07/26 00:41:41;;;;;;;5.33;4.83;;;22.00;99.90;;;;;;5116041;28;20446;-64
2022/07/26 00:44:08;;;;;;;5.93;5.40;;;22.00;99.90;;;;;;5116321;28;20536;-64
2022/07/26 00:46:34;;;;;;;5.40;5.10;;;21.90;99.90;;;;;;5116163;28;20445;-63
2022/07/26 00:49:00;;;;;;;5.27;4.80;;;21.70;99.90;;;;;;5116164;28;20804;-63
2022/07/26 00:51:28;;;;;;;6.07;4.77;;;21.80;99.90;;;;;;5115948;28;20442;-63
2022/07/26 00:53:56;;;;;;;5.13;4.80;;;21.80;99.90;;;;;;5115897;28;20963;-63
2022/07/26 00:56:23;;;;;;;5.50;5.00;;;21.80;99.90;;;;;;5115825;28;20485;-64
2022/07/26 00:58:49;;;;;;;5.47;4.77;;;21.80;99.90;;;;;;5115056;28;20445;-64
2022/07/26 01:01:16;;;;;;;5.93;5.47;;;21.80;99.90;;;;;;5115843;28;20450;-63
2022/07/26 01:03:42;;;;;;;5.83;4.87;;;21.90;99.90;;;;;;5115803;28;20449;-64
2022/07/26 01:06:09;;;;;;;5.93;5.40;;;21.90;99.90;;;;;;5115754;28;20449;-64
2022/07/26 01:08:36;;;;;;;5.23;4.57;;;21.90;99.90;;;;;;5115572;28;20482;-63
2022/07/26 01:11:04;;;;;;;4.63;4.23;;;21.90;99.90;;;;;;5115787;28;20446;-63
2022/07/26 01:13:31;;;;;;;5.63;5.13;;;22.00;99.90;;;;;;5115722;28;20548;-63
2022/07/26 01:15:57;;;;;;;5.63;4.90;;;22.00;99.90;;;;;;5115524;28;20477;-63
2022/07/26 01:18:24;;;;;;;4.50;4.20;;;22.10;99.90;;;;;;5115559;28;20449;-64
2022/07/26 01:20:51;;;;;;;5.80;4.40;;;22.20;99.90;;;;;;5115310;28;21000;-63
2022/07/26 01:23:19;;;;;;;6.30;5.70;;;22.10;99.90;;;;;;5115389;28;20452;-64
2022/07/26 01:25:46;;;;;;;5.17;4.67;;;22.10;99.90;;;;;;5115463;28;20814;-64
2022/07/26 01:28:12;;;;;;;5.07;4.67;;;22.10;99.90;;;;;;5115435;28;20452;-63
2022/07/26 01:30:39;;;;;;;4.90;4.60;;;22.10;99.90;;;;;;5115245;28;20441;-64
2022/07/26 01:33:05;;;;;;;5.73;4.87;;;22.10;99.90;;;;;;5115214;28;20441;-63
2022/07/26 01:35:32;;;;;;;5.03;4.67;;;22.10;99.90;;;;;;5114991;28;20835;-63
2022/07/26 01:37:58;;;;;;;7.40;5.30;;;22.00;99.90;;;;;;5115297;28;20446;-63
2022/07/26 01:40:26;;;;;;;4.73;4.43;;;22.00;99.90;;;;;;5115091;28;20790;-63
2022/07/26 01:42:53;;;;;;;4.40;4.00;;;22.10;99.90;;;;;;5115086;28;20453;-63
2022/07/26 01:45:19;;;;;;;4.73;4.20;;;22.10;99.90;;;;;;5115059;28;20564;-63
2022/07/26 01:47:48;;;;;;;4.13;3.80;;;22.10;99.90;;;;;;5114985;28;20448;-63
2022/07/26 01:50:16;;;;;;;6.33;5.17;;;22.10;99.90;;;;;;5114749;28;20452;-63
2022/07/26 01:52:43;;;;;;;7.93;5.87;;;22.00;99.90;;;;;;5114809;28;20442;-64
2022/07/26 01:55:09;;;;;;;6.13;4.83;;;22.00;99.90;;;;;;5114839;28;20450;-63
2022/07/26 01:57:37;;;;;;;6.47;4.70;;;22.10;99.90;;;;;;5114517;27;20501;-63
2022/07/26 02:00:06;;;;;;;5.27;4.77;;;22.10;99.90;;;;;;5114767;28;20450;-63
2022/07/26 02:02:32;;;;;;;4.90;4.60;;;22.10;99.90;;;;;;5114505;28;20453;-63
2022/07/26 02:04:58;;;;;;;5.23;4.80;;;22.20;99.90;;;;;;5114808;28;20873;-63
2022/07/26 02:07:26;;;;;;;7.57;5.97;;;22.10;99.90;;;;;;5114632;28;20499;-64
2022/07/26 02:09:52;;;;;;;7.03;6.00;;;22.20;99.90;;;;;;5114437;28;20540;-63
2022/07/26 02:12:19;;;;;;;5.97;5.50;;;22.20;99.90;;;;;;5114465;28;20446;-63
2022/07/26 02:14:47;;;;;;;7.00;6.10;;;22.10;99.90;;;;;;5114424;28;20548;-63
2022/07/26 02:17:13;;;;;;;5.83;5.30;;;22.10;99.90;;;;;;5114245;28;20969;-63
2022/07/26 02:19:40;;;;;;;6.03;5.47;;;22.10;99.90;;;;;;5114502;28;20452;-63
2022/07/26 02:22:06;;;;;;;14.10;6.20;;;22.10;99.90;;;;;;5114537;28;20800;-63
2022/07/26 02:24:33;;;;;;;6.13;5.63;;;22.10;99.90;;;;;;5114270;28;20541;-63
2022/07/26 02:27:01;;;;;;;6.13;5.70;;;22.10;99.90;;;;;;5114200;28;20800;-63
2022/07/26 02:29:28;;;;;;;6.40;5.93;;;22.20;99.90;;;;;;5114111;28;20448;-63
2022/07/26 02:31:57;;;;;;;6.83;6.23;;;22.20;99.90;;;;;;5113830;28;20491;-63
2022/07/26 02:34:24;;;;;;;6.83;6.33;;;22.30;99.90;;;;;;5114180;28;20450;-64
2022/07/26 02:36:51;;;;;;;7.70;7.10;;;22.30;99.90;;;;;;5114013;28;20513;-63
2022/07/26 02:39:18;;;;;;;7.70;7.10;;;22.20;99.90;;;;;;5114018;28;20449;-63
2022/07/26 02:41:44;;;;;;;8.13;7.30;;;22.20;99.90;;;;;;5113766;28;20933;-63
2022/07/26 02:44:11;;;;;;;8.03;7.33;;;22.20;99.90;;;;;;5113849;28;20446;-63
2022/07/26 02:46:38;;;;;;;8.50;7.70;;;22.10;99.90;;;;;;5113736;28;20485;-63
2022/07/26 02:49:06;;;;;;;7.70;7.03;;;22.20;99.90;;;;;;5114112;28;20445;-63
2022/07/26 02:51:32;;;;;;;9.03;8.30;;;22.20;99.90;;;;;;5113819;28;20452;-63
2022/07/26 02:53:58;;;;;;;10.87;8.37;;;22.20;99.90;;;;;;5113773;28;20484;-63
2022/07/26 02:56:25;;;;;;;8.67;7.90;;;22.20;99.90;;;;;;5113405;28;20829;-63
2022/07/26 02:58:51;;;;;;;8.33;7.73;;;22.20;99.90;;;;;;5113548;28;20454;-64
2022/07/26 03:01:18;;;;;;;11.10;8.80;;;22.20;99.90;;;;;;5113782;28;20452;-63
2022/07/26 03:03:45;;;;;;;9.27;8.47;;;22.20;99.90;;;;;;5113618;28;20449;-63
2022/07/26 03:06:13;;;;;;;11.77;8.97;;;22.10;99.90;;;;;;5113674;28;20449;-63
2022/07/26 03:08:39;;;;;;;9.53;8.73;;;22.20;99.90;;;;;;5113629;28;20450;-63
2022/07/26 03:11:06;;;;;;;9.57;8.87;;;22.10;99.90;;;;;;5113939;28;20553;-63
2022/07/26 03:13:33;;;;;;;9.90;9.00;;;22.10;99.90;;;;;;5113279;28;20937;-64
2022/07/26 03:15:59;;;;;;;10.63;9.73;;;22.10;99.90;;;;;;5113511;28;20477;-63
2022/07/26 03:18:26;;;;;;;9.13;8.40;;;22.10;99.90;;;;;;5113499;28;20468;-63
2022/07/26 03:20:53;;;;;;;9.40;8.47;;;22.10;99.90;;;;;;5112801;28;20438;-63
2022/07/26 03:23:20;;;;;;;9.83;9.03;;;22.10;99.90;;;;;;5113336;28;20445;-63
2022/07/26 03:25:47;;;;;;;9.13;8.10;;;22.00;99.90;;;;;;5113236;28;20449;-63
2022/07/26 03:28:13;;;;;;;8.27;7.57;;;22.10;99.90;;;;;;5113204;28;20449;-63
2022/07/26 03:30:40;;;;;;;9.23;8.43;;;22.10;99.90;;;;;;5113395;28;20536;-63
2022/07/26 03:33:06;;;;;;;8.53;7.53;;;22.10;99.90;;;;;;5113409;28;20448;-63
2022/07/26 03:35:33;;;;;;;8.20;7.50;;;22.10;99.90;;;;;;5113238;28;20442;-63
2022/07/26 03:37:59;;;;;;;8.97;8.23;;;22.10;99.90;;;;;;5113201;28;20442;-63
2022/07/26 03:40:27;;;;;;;8.93;8.10;;;22.10;99.90;;;;;;5113108;28;20976;-63
2022/07/26 03:42:54;;;;;;;8.47;7.73;;;22.10;99.90;;;;;;5113043;28;20805;-63
2022/07/26 03:45:21;;;;;;;8.80;8.10;;;22.10;99.90;;;;;;5113214;28;20506;-63
2022/07/26 03:47:47;;;;;;;9.00;8.30;;;22.00;99.90;;;;;;5113178;28;20485;-63
2022/07/26 03:50:14;;;;;;;8.53;7.63;;;22.00;99.90;;;;;;5113124;28;20452;-63
2022/07/26 03:52:40;;;;;;;8.73;7.93;;;22.00;99.90;;;;;;5113071;28;20881;-63
2022/07/26 03:57:50;;;;;;;8.87;8.07;;;22.00;99.90;;;;;;5112826;28;20596;-63
2022/07/26 04:00:16;;;;;;;7.73;7.13;;;22.00;99.90;;;;;;5113055;28;20449;-63
2022/07/26 04:02:43;;;;;;;8.93;8.10;;;22.00;99.90;;;;;;5112873;28;20940;-63
2022/07/26 04:05:09;;;;;;;8.07;7.43;;;21.90;99.90;;;;;;5112983;28;20815;-63
2022/07/26 04:07:42;;;;;;;7.80;7.20;;;21.90;99.90;;;;;;5112793;28;20448;-63
2022/07/26 04:10:09;;;;;;;9.00;7.37;;;21.90;99.90;;;;;;5113099;28;20453;-63
2022/07/26 04:12:36;;;;;;;9.70;8.20;;;22.00;99.90;;;;;;5112976;28;20511;-63
2022/07/26 04:15:04;;;;;;;9.80;7.80;;;22.00;99.90;;;;;;5112954;28;20962;-63
2022/07/26 04:17:36;;;;;;;9.70;8.90;;;22.00;99.90;;;;;;5112781;28;20832;-63
2022/07/26 04:20:04;;;;;;;8.97;8.17;;;22.00;99.90;;;;;;5112769;28;20531;-64
2022/07/26 04:22:30;;;;;;;10.63;9.73;;;22.00;99.90;;;;;;5112696;28;20450;-63
2022/07/26 04:24:57;;;;;;;11.43;8.67;;;22.00;99.90;;;;;;5112858;28;20460;-63
2022/07/26 04:27:24;;;;;;;7.87;7.27;;;22.00;99.90;;;;;;5112634;28;20974;-63
2022/07/26 04:29:50;;;;;;;7.83;7.20;;;21.90;99.90;;;;;;5112530;28;20932;-63
2022/07/26 04:32:18;;;;;;;8.87;8.07;;;21.90;99.90;;;;;;5112608;28;20494;-63
2022/07/26 04:34:44;;;;;;;7.43;6.83;;;21.80;99.90;;;;;;5115486;28;20446;-63
2022/07/26 04:37:11;;;;;;;15.53;7.03;;;21.90;99.90;;;;;;5116154;28;20534;-63
2022/07/26 04:39:37;;;;;;;6.00;5.50;;;21.90;99.90;;;;;;5116392;28;20446;-63
2022/07/26 04:42:04;;;;;;;10.23;6.60;;;21.80;99.90;;;;;;5116192;28;20452;-63
2022/07/26 04:44:30;;;;;;;8.00;7.23;;;21.90;99.90;;;;;;5116187;28;20452;-63
2022/07/26 04:46:57;;;;;;;6.40;5.80;;;21.90;99.90;;;;;;5116057;28;20536;-63
2022/07/26 04:49:25;;;;;;;5.90;5.40;;;21.90;99.90;;;;;;5115960;28;20544;-63
2022/07/26 04:51:51;;;;;;;6.20;5.80;;;22.00;99.90;;;;;;5116142;28;20472;-63
2022/07/26 04:54:19;;;;;;;6.80;6.30;;;22.10;99.90;;;;;;5116030;28;20532;-63
2022/07/26 04:56:46;;;;;;;5.97;5.37;;;22.10;99.90;;;;;;5115674;28;20489;-63
2022/07/26 04:59:13;;;;;;;6.13;5.63;;;22.10;99.90;;;;;;5115863;28;20446;-63
2022/07/26 05:01:39;;;;;;;7.57;6.83;;;22.20;99.90;;;;;;5115843;28;21033;-63
2022/07/26 05:04:06;;;;;;;6.80;6.20;;;22.30;99.90;;;;;;5115633;28;20450;-63
2022/07/26 05:06:34;;;;;;;8.87;5.93;;;22.40;99.90;;;;;;5115824;28;20450;-63
2022/07/26 05:09:00;;;;;;;6.93;6.30;;;22.50;99.90;;;;;;5115705;28;20790;-63
2022/07/26 05:11:28;;;;;;;6.20;5.70;;;22.50;99.90;;;;;;5115461;28;20529;-63
2022/07/26 05:13:54;;;;;;;6.07;5.47;;;22.50;99.90;;;;;;5115542;28;20869;-63
2022/07/26 05:16:21;;;;;;;7.10;6.00;;;22.60;99.90;;;;;;5115310;28;20491;-63
2022/07/26 05:18:47;;;;;;;9.30;5.67;;;22.60;99.90;;;;;;5115704;28;20437;-63
2022/07/26 05:21:14;;;;;;;6.60;6.10;;;22.60;99.90;;;;;;5115527;28;20858;-63
2022/07/26 05:23:42;;;;;;;6.00;5.40;;;22.60;99.90;;;;;;5115421;28;20529;-63
2022/07/26 05:26:08;;;;;;;6.70;6.00;;;22.50;99.90;;;;;;5115440;28;20448;-63
2022/07/26 05:28:34;;;;;;;6.83;6.13;;;22.50;99.90;;;;;;5115274;28;20876;-63
2022/07/26 05:31:01;;;;;;;7.30;6.60;;;22.50;99.90;;;;;;5115114;28;20445;-64
2022/07/26 05:33:27;;;;;;;7.77;6.67;;;22.50;99.90;;;;;;5115454;28;20442;-63
2022/07/26 05:35:54;;;;;;;7.03;6.37;;;22.50;99.90;;;;;;5115327;28;20441;-63
2022/07/26 05:38:21;;;;;;;6.87;6.23;;;22.50;99.90;;;;;;5115164;28;20488;-64
2022/07/26 05:40:49;;;;;;;7.13;6.03;;;22.50;99.90;;;;;;5115098;28;20477;-63
2022/07/26 05:43:15;;;;;;;8.97;7.60;;;22.50;99.90;;;;;;5115171;28;20457;-63
2022/07/26 05:45:41;;;;;;;7.87;7.10;;;22.50;99.90;;;;;;5114556;28;20532;-63
2022/07/26 05:48:08;;;;;;;9.30;7.63;;;22.50;99.90;;;;;;5115149;28;20493;-64
2022/07/26 05:50:34;;;;;;;10.13;6.97;;;22.50;99.90;;;;;;5114648;28;20455;-63
2022/07/26 05:53:01;;;;;;;8.73;6.47;;;22.40;99.90;;;;;;5114826;28;20824;-63
2022/07/26 05:55:28;;;;;;;7.53;6.83;;;22.50;99.90;;;;;;5114582;28;20442;-63
2022/07/26 05:57:55;;;;;;;8.03;6.70;;;22.60;99.90;;;;;;5114518;28;20883;-63
2022/07/26 06:00:22;;;;;;;8.07;7.23;;;22.70;99.90;;;;;;5114428;28;20891;-63
2022/07/26 06:02:48;;;;;;;8.70;6.57;;;22.80;99.90;;;;;;5114819;28;20445;-63
2022/07/26 06:05:15;;;;;;;6.00;5.50;;;22.80;99.90;;;;;;5114530;28;20446;-64
2022/07/26 06:07:42;;;;;;;7.43;6.67;;;22.90;99.90;;;;;;5114654;28;20855;-63
2022/07/26 06:10:09;;;;;;;5.70;5.07;;;22.90;99.90;;;;;;5114488;28;20536;-63
2022/07/26 06:12:36;;;;;;;7.77;5.80;;;22.90;99.90;;;;;;5114362;28;20479;-63
2022/07/26 06:15:04;;;;;;;7.57;6.00;;;22.90;99.90;;;;;;5114375;28;20874;-63
2022/07/26 06:17:31;;;;;;;8.30;5.87;;;22.90;99.90;;;;;;5114444;28;20576;-63
2022/07/26 06:19:58;;;;;;;18.60;5.43;;;22.90;99.90;;;;;;5114439;28;20533;-63
2022/07/26 06:22:25;;;;;;;7.53;5.37;;;22.90;99.90;;;;;;5114275;28;20544;-63
2022/07/26 06:24:52;;;;;;;5.93;5.43;;;23.00;99.90;;;;;;5114179;28;20541;-63
2022/07/26 06:27:18;;;;;;;8.73;4.43;;;22.90;99.90;;;;;;5114040;28;20471;-63
2022/07/26 06:29:47;;;;;;;6.10;5.00;;;22.90;99.90;;;;;;5114271;28;20544;-63
2022/07/26 06:32:15;;;;;;;4.70;4.30;;;22.80;99.90;;;;;;5114170;28;20446;-63
2022/07/26 06:34:41;;;;;;;5.93;4.60;;;22.80;99.90;;;;;;5114134;28;20452;-63
2022/07/26 06:37:07;;;;;;;5.83;5.07;;;23.00;99.90;;;;;;5113791;28;21087;-63
2022/07/26 06:39:34;;;;;;;7.33;4.23;;;23.20;99.90;;;;;;5103579;28;20485;-63
2022/07/26 06:42:00;;;;;;;5.30;4.00;;;23.20;99.90;;;;;;5106921;28;20536;-63
2022/07/26 06:44:27;;;;;;;4.63;3.30;;;23.40;99.90;;;;;;5113928;28;20445;-63
2022/07/26 06:46:53;;;;;;;4.47;3.30;;;23.50;99.90;;;;;;5113977;28;20889;-62
2022/07/26 06:49:21;;;;;;;5.93;3.40;;;23.60;99.90;;;;;;5113470;28;20456;-63
2022/07/26 06:51:48;;;;;;;4.63;2.90;;;23.60;99.90;;;;;;5104429;28;20456;-62
2022/07/26 06:54:14;;;;;;;3.30;3.10;;;23.60;99.90;;;;;;5093204;28;20533;-62
2022/07/26 06:56:41;;;;;;;7.50;2.93;;;23.60;99.90;;;;;;5092149;28;20484;-62
2022/07/26 06:59:07;;;;;;;3.43;2.90;;;23.60;99.90;;;;;;5093210;28;20538;-62
2022/07/26 07:01:34;;;;;;;5.77;3.03;;;23.50;99.90;;;;;;5093265;28;20446;-62
2022/07/26 07:04:00;;;;;;;3.57;2.77;;;23.50;99.90;;;;;;5093231;28;20480;-62
2022/07/26 07:06:28;;;;;;;2.87;2.67;;;23.70;99.90;;;;;;5107521;28;20537;-62
2022/07/26 07:08:54;;;;;;;6.43;2.90;;;23.80;99.90;;;;;;5113361;28;20992;-62
2022/07/26 07:11:21;;;;;;;2.93;2.60;;;23.70;99.90;;;;;;5113526;28;20556;-63
2022/07/26 07:13:47;;;;;;;3.80;2.90;;;23.80;99.90;;;;;;5113501;28;20445;-62
2022/07/26 07:16:14;;;;;;;3.47;2.77;;;23.90;99.90;;;;;;5113408;28;20478;-62
2022/07/26 07:18:40;;;;;;;3.50;2.70;;;24.10;99.90;;;;;;5113310;28;20832;-62
2022/07/26 07:21:07;;;;;;;6.30;3.40;;;24.20;99.90;;;;;;5113288;28;20456;-62
2022/07/26 07:23:35;;;;;;;3.27;2.77;;;24.30;99.90;;;;;;5113145;28;20442;-62
2022/07/26 07:26:01;;;;;;;4.10;2.30;;;24.30;99.90;;;;;;5113529;28;20533;-62
2022/07/26 07:28:28;;;;;;;9.20;3.73;;;24.20;99.90;;;;;;5113364;28;20454;-62
2022/07/26 07:30:54;;;;;;;4.57;2.70;;;24.10;99.90;;;;;;5113098;28;20442;-62
2022/07/26 07:33:21;;;;;;;5.63;2.60;;;24.00;99.90;;;;;;5110638;28;20441;-62
2022/07/26 07:35:47;;;;;;;5.27;2.63;;;24.00;99.90;;;;;;5106167;28;20557;-60
2022/07/26 07:38:14;;;;;;;3.13;2.67;;;24.10;99.90;;;;;;5106541;28;20484;-61
2022/07/26 07:40:41;;;;;;;5.33;2.60;;;24.10;99.90;;;;;;5099299;28;20511;-61
2022/07/26 07:43:08;;;;;;;3.13;2.23;;;24.20;99.90;;;;;;5101783;28;20481;-59
2022/07/26 07:45:34;;;;;;;6.57;2.83;;;24.20;99.90;;;;;;5098431;28;20887;-59
2022/07/26 07:48:01;;;;;;;5.70;2.27;;;24.40;99.90;;;;;;5096118;28;20454;-59
2022/07/26 07:50:27;;;;;;;4.23;1.90;;;24.40;99.90;;;;;;5102075;28;20453;-59
2022/07/26 07:52:54;;;;;;;4.60;2.37;;;24.60;99.90;;;;;;5110816;28;20875;-67
2022/07/26 07:55:20;;;;;;;2.57;1.60;;;24.60;99.90;;;;;;5111985;28;20813;-59
2022/07/26 07:57:48;;;;;;;2.83;1.60;;;24.60;99.90;;;;;;5107784;28;20477;-58
2022/07/26 08:00:18;;;;;;;3.80;1.70;;;24.50;99.90;;;;;;5111787;28;20454;-58
2022/07/26 08:02:45;;;;;;;4.80;2.03;;;24.40;99.90;;;;;;5110950;28;20801;-59
2022/07/26 08:05:11;;;;;;;4.50;1.87;;;24.40;99.90;;;;;;5111662;28;21040;-60
2022/07/26 08:07:38;;;;;;;4.43;1.90;;;24.60;99.90;;;;;;5113281;28;20933;-53
2022/07/26 08:10:05;;;;;;;3.00;1.40;;;24.90;99.90;;;;;;5115725;28;20452;-52
2022/07/26 08:12:32;;;;;;;4.13;1.70;;;25.00;99.90;;;;;;5115245;27;20481;-59
2022/07/26 08:15:01;;;;;;;4.03;1.83;;;25.10;99.90;;;;;;5116514;28;20533;-59
2022/07/26 08:17:27;;;;;;;4.30;1.97;;;25.00;99.90;;;;;;5110667;28;20514;-58
2022/07/26 08:19:54;;;;;;;4.30;1.70;;;24.90;99.90;;;;;;5115495;28;20540;-59
2022/07/26 08:22:20;;;;;;;2.80;1.87;;;25.00;99.90;;;;;;5096792;28;20454;-60
2022/07/26 08:24:47;;;;;;;5.77;2.43;;;25.10;99.90;;;;;;5115122;28;20449;-60
2022/07/26 08:27:13;;;;;;;6.40;2.03;;;25.10;99.90;;;;;;5116520;28;20457;-60
2022/07/26 08:29:40;;;;;;;5.17;2.33;;;25.10;99.90;;;;;;5113707;27;20967;-59
2022/07/26 08:32:08;;;;;;;4.90;1.60;;;25.10;99.90;;;;;;5100088;28;20456;-59
2022/07/26 08:34:34;;;;;;;4.07;1.97;;;25.10;99.90;;;;;;5113963;28;21192;-59
2022/07/26 08:37:01;;;;;;;3.00;1.60;;;25.10;99.90;;;;;;5115086;28;20505;-59
2022/07/26 08:39:27;;;;;;;2.27;1.80;;;25.20;99.90;;;;;;5114122;28;20453;-58
2022/07/26 08:41:54;;;;;;;2.97;1.37;;;25.30;99.90;;;;;;5115258;27;20450;-62
2022/07/26 08:44:20;;;;;;;1.93;1.60;;;25.30;99.90;;;;;;5113347;28;20569;-61
2022/07/26 08:46:47;;;;;;;3.67;1.70;;;25.30;99.90;;;;;;5109679;28;20511;-62
2022/07/26 08:49:15;;;;;;;1.80;1.40;;;25.40;99.90;;;;;;5104193;28;20537;-62
2022/07/26 08:51:42;;;;;;;3.07;1.30;;;25.30;99.90;;;;;;5115176;27;20445;-62
2022/07/26 08:54:10;;;;;;;2.90;1.90;;;25.20;99.90;;;;;;5104843;28;20454;-62
2022/07/26 08:56:41;;;;;;;7.77;2.23;;;25.10;99.90;;;;;;5112535;27;20481;-62
2022/07/26 08:59:13;;;;;;;2.67;1.33;;;25.00;99.90;;;;;;5101886;28;20477;-62
2022/07/26 09:01:50;;;;;;;5.93;1.93;;;25.10;99.90;;;;;;5114872;28;20541;-62
2022/07/26 09:04:19;;;;;;;5.27;1.87;;;25.00;99.90;;;;;;5111275;27;20800;-62
2022/07/26 09:06:56;;;;;;;2.83;1.90;;;25.00;99.90;;;;;;5114145;27;20481;-62
2022/07/26 09:09:22;;;;;;;4.70;2.10;;;25.20;99.90;;;;;;5115522;28;20889;-63
2022/07/26 09:11:49;;;;;;;3.10;1.40;;;25.40;99.90;;;;;;5097520;28;20533;-64
2022/07/26 09:14:15;;;;;;;2.60;1.90;;;25.40;99.90;;;;;;5114775;27;20460;-59
2022/07/26 09:16:56;;;;;;;2.67;1.60;;;25.40;99.90;;;;;;5104254;28;20877;-59
2022/07/26 09:19:24;;;;;;;4.60;2.00;;;25.20;99.90;;;;;;5114641;28;20477;-62
2022/07/26 09:21:52;;;;;;;4.70;2.10;;;25.10;99.90;;;;;;5115302;28;20448;-60
2022/07/26 09:24:31;;;;;;;2.53;2.10;;;25.10;99.90;;;;;;5115144;28;20540;-60
2022/07/26 09:26:58;;;;;;;8.00;2.00;;;25.10;99.90;;;;;;5113091;28;20453;-63
2022/07/26 09:29:25;;;;;;;3.57;1.80;;;24.90;99.90;;;;;;5110540;27;20449;-63
2022/07/26 09:31:51;;;;;;;2.37;1.70;;;25.00;99.90;;;;;;5111805;28;20451;-63
2022/07/26 09:34:25;;;;;;;2.30;1.47;;;24.90;99.90;;;;;;5115249;28;20541;-62
2022/07/26 09:36:53;;;;;;;3.50;1.80;;;25.00;99.90;;;;;;5112446;27;20960;-59
2022/07/26 09:39:20;;;;;;;4.10;1.90;;;25.10;99.90;;;;;;5115089;28;20482;-59
2022/07/26 09:41:47;;;;;;;3.03;1.90;;;25.20;99.90;;;;;;5114864;28;20449;-59
2022/07/26 09:44:21;;;;;;;4.67;2.00;;;25.20;99.90;;;;;;5114987;28;20807;-61
2022/07/26 09:46:52;;;;;;;4.30;1.60;;;25.00;99.90;;;;;;5114897;28;20892;-60
2022/07/26 09:49:20;;;;;;;1.87;1.20;;;25.30;99.90;;;;;;5102416;28;20458;-63
2022/07/26 09:51:50;;;;;;;4.40;1.87;;;25.50;99.90;;;;;;5094517;28;20537;-63
2022/07/26 09:54:18;;;;;;;5.30;1.70;;;25.80;99.90;;;;;;5099504;28;20460;-63
2022/07/26 09:56:47;;;;;;;2.40;1.60;;;25.70;99.90;;;;;;5114249;28;20983;-64
2022/07/26 09:59:15;;;;;;;1.87;1.53;;;25.50;99.90;;;;;;5114341;28;20560;-64
2022/07/26 10:01:42;;;;;;;2.10;1.27;;;25.40;99.90;;;;;;5113875;28;20450;-65
2022/07/26 10:04:08;;;;;;;2.90;1.50;;;25.10;99.90;;;;;;5113460;28;20544;-65
2022/07/26 10:06:35;;;;;;;3.90;1.63;;;25.10;99.90;;;;;;5114344;28;20536;-65
2022/07/26 10:09:03;;;;;;;3.00;1.33;;;25.00;99.90;;;;;;5114525;28;20532;-64
2022/07/26 10:11:36;;;;;;;3.67;1.83;;;25.00;99.90;;;;;;5111485;28;20533;-62
2022/07/26 10:14:36;;;;;;;4.60;1.73;;;25.10;99.90;;;;;;5113312;28;20474;-61
2022/07/26 10:17:46;;;;;;;1.70;1.30;;;25.10;99.90;;;;;;5109594;28;20460;-58
2022/07/26 10:20:46;;;;;;;1.73;1.33;;;25.20;99.90;;;;;;5104892;27;20485;-57
2022/07/26 10:23:39;;;;;;;3.10;1.40;;;25.30;99.90;;;;;;5110031;28;21060;-59
2022/07/26 10:26:12;;;;;;;1.70;1.27;;;25.50;99.90;;;;;;5114066;28;20992;-59
2022/07/26 10:28:40;;;;;;;2.77;1.00;;;25.80;99.90;;;;;;5103829;28;20457;-60
2022/07/26 10:31:29;;;;;;;3.93;1.07;;;26.00;99.90;;;;;;5093508;28;20991;-60
2022/07/26 10:33:56;;;;;;;5.47;1.83;;;26.10;99.90;;;;;;5093842;28;20446;-60
2022/07/26 10:36:30;;;;;;;1.90;1.30;;;26.00;99.90;;;;;;5093752;28;20474;-60
2022/07/26 10:39:01;;;;;;;3.77;1.70;;;25.90;99.90;;;;;;5101609;28;20511;-59
2022/07/26 10:41:34;;;;;;;1.50;1.33;;;26.10;99.90;;;;;;5111803;27;20540;-59
2022/07/26 10:44:27;;;;;;;4.93;1.30;;;26.30;99.90;;;;;;5112797;28;20453;-61
2022/07/26 10:47:01;;;;;;;1.70;1.20;;;26.50;99.90;;;;;;5104197;28;20449;-60
2022/07/26 10:49:33;;;;;;;1.10;1.00;;;26.60;99.90;;;;;;5113636;28;20531;-61
2022/07/26 10:52:15;;;;;;;3.63;1.10;;;26.60;99.90;;;;;;5113295;28;20590;-60
2022/07/26 10:55:19;;;;;;;3.33;1.40;;;26.60;99.90;;;;;;5113817;28;20442;-61
2022/07/26 10:57:48;;;;;;;1.90;1.00;;;26.40;99.90;;;;;;5113523;28;20794;-61
2022/07/26 11:00:22;;;;;;;1.40;1.03;;;26.30;99.90;;;;;;5113308;28;20422;-60
2022/07/26 11:02:53;;;;;;;1.43;1.10;;;26.40;99.90;;;;;;5113433;28;21019;-61
2022/07/26 11:05:21;;;;;;;5.23;1.03;;;26.30;99.90;;;;;;5113578;28;20567;-61
2022/07/26 11:07:55;;;;;;;1.87;1.20;;;26.30;99.90;;;;;;5113587;28;20446;-61
2022/07/26 11:10:24;;;;;;;1.13;1.03;;;26.40;99.90;;;;;;5113346;28;20485;-60
2022/07/26 11:13:04;;;;;;;1.53;1.00;;;26.50;99.90;;;;;;5113294;28;20441;-60
2022/07/26 11:15:30;;;;;;;1.70;1.10;;;26.60;99.90;;;;;;5113520;28;20481;-60
2022/07/26 11:18:23;;;;;;;4.97;1.40;;;26.60;99.90;;;;;;5113426;28;20445;-61
2022/07/26 11:20:53;;;;;;;3.50;1.40;;;26.70;99.90;;;;;;5094112;28;20461;-60
2022/07/26 11:23:24;;;;;;;1.90;1.30;;;27.00;99.90;;;;;;5113216;28;20445;-61
2022/07/26 11:26:11;;;;;;;1.60;1.43;;;27.10;99.90;;;;;;5113609;28;20544;-61
2022/07/26 11:28:52;;;;;;;2.27;1.47;;;27.30;99.90;;;;;;5113450;28;20452;-61
2022/07/26 11:31:20;;;;;;;2.53;1.43;;;27.40;99.90;;;;;;5113186;28;20449;-60
2022/07/26 11:33:49;;;;;;;1.90;1.23;;;27.10;99.90;;;;;;5113197;28;20445;-61
2022/07/26 11:36:17;;;;;;;3.43;0.90;;;27.00;99.90;;;;;;5109572;28;20821;-60
2022/07/26 11:38:49;;;;;;;3.60;1.50;;;26.70;99.90;;;;;;5110536;28;20473;-60
2022/07/26 11:41:18;;;;;;;3.23;1.30;;;26.60;99.90;;;;;;5111772;28;20541;-61
2022/07/26 11:43:45;;;;;;;2.80;1.30;;;26.50;99.90;;;;;;5116432;28;20876;-63
2022/07/26 11:46:13;;;;;;;4.13;1.20;;;26.30;99.90;;;;;;5097282;28;20450;-62
2022/07/26 11:48:45;;;;;;;2.10;1.37;;;26.30;99.90;;;;;;5110804;28;20626;-61
2022/07/26 11:51:14;;;;;;;1.90;1.20;;;26.60;99.90;;;;;;5115475;28;20456;-61
2022/07/26 11:53:40;;;;;;;2.93;1.20;;;26.80;99.90;;;;;;5116091;28;20441;-61
2022/07/26 11:56:15;;;;;;;1.37;1.20;;;27.10;99.90;;;;;;5116805;28;20912;-61
2022/07/26 11:58:43;;;;;;;3.00;1.10;;;27.50;99.90;;;;;;5116427;28;20504;-59
2022/07/26 12:01:12;;;;;;;4.10;1.47;;;27.90;99.90;;;;;;5113057;28;20507;-59
2022/07/26 12:03:41;;;;;;;1.20;1.10;;;27.90;99.90;;;;;;5113092;28;20530;-58
2022/07/26 12:06:11;;;;;;;2.77;1.50;;;28.00;99.90;;;;;;5116431;28;20477;-63
2022/07/26 12:08:46;;;;;;;3.50;1.20;;;28.10;99.90;;;;;;5115333;28;20548;-62
2022/07/26 12:11:14;;;;;;;4.53;1.20;;;28.00;99.90;;;;;;5116428;28;20947;-61
2022/07/26 12:13:49;;;;;;;1.67;1.33;;;28.00;99.90;;;;;;5116519;28;20460;-61
2022/07/26 12:16:34;;;;;;;3.50;1.30;;;27.80;99.90;;;;;;5106093;28;20479;-61
2022/07/26 12:19:03;;;;;;;2.70;1.50;;;27.40;99.90;;;;;;5108349;28;20481;-62
2022/07/26 12:21:41;;;;;;;5.50;1.30;;;27.20;99.90;;;;;;5116210;28;20476;-62
2022/07/26 12:24:09;;;;;;;2.17;1.40;;;26.90;99.90;;;;;;5116660;28;20870;-62
2022/07/26 12:26:36;;;;;;;2.73;1.47;;;26.70;99.90;;;;;;5115454;28;20542;-61
2022/07/26 12:32:01;;;;;;;1.53;1.20;;;26.40;99.90;;;;;;5116068;28;20792;-58
2022/07/26 12:34:29;;;;;;;1.90;1.30;;;26.40;99.90;;;;;;5115508;28;20449;-58
2022/07/26 12:37:04;;;;;;;2.23;1.40;;;26.30;99.90;;;;;;5097652;28;20446;-58
2022/07/26 12:39:31;;;;;;;1.40;1.20;;;26.20;99.90;;;;;;5109864;28;20507;-56
2022/07/26 12:41:57;;;;;;;1.80;1.27;;;26.10;99.90;;;;;;5115125;28;20482;-56
2022/07/26 12:44:24;;;;;;;2.07;1.37;;;25.90;99.90;;;;;;5112069;28;21215;-57
2022/07/26 12:46:50;;;;;;;3.50;2.03;;;25.70;99.90;;;;;;5114761;28;20797;-57
2022/07/26 12:49:17;;;;;;;5.07;1.60;;;25.30;99.90;;;;;;5115195;28;20564;-56
2022/07/26 12:51:45;;;;;;;1.90;1.33;;;24.70;99.90;;;;;;5115651;28;20843;-55
2022/07/26 12:54:11;;;;;;;1.93;1.60;;;24.30;99.90;;;;;;5113155;28;20533;-54
2022/07/26 12:56:38;;;;;;;4.80;2.40;;;24.00;99.90;;;;;;5115648;28;20565;-56
2022/07/26 12:59:04;;;;;;;1.83;1.73;;;23.60;99.90;;;;;;5115686;28;20473;-56